Terminal Aerodrome Forecast
Issued by NWS

Home | Current Version | Previous Version | Text Only | Print | Product List | Glossary On
Versions: 1 2 3 4 5 6 7 8 9 10 11 12 13 14 15 16 17 18 19 20 21 22
000
FTUS43 KLOT 271120
TAFGYY
TAF
KGYY 271120Z 2712/2812 18006KT P6SM FEW020 BKN250
     FM271400 19010KT P6SM VCSH SCT030 BKN250
     FM272000 16010KT P6SM VCTS BKN040CB BKN250 PROB30 2721/2724 4SM
      TSRA SCT030 OVC040CB
     FM280000 17009KT P6SM SCT040 BKN120=

USA.gov is the U.S. government's official web portal to all federal, state and local government web resources and services.